createdAt,value
2023-04-02T00:00:47.228Z,8.497
2023-04-02T00:01:47.459Z,8.535
2023-04-02T00:02:48.169Z,8.529
2023-04-02T00:03:47.781Z,8.527
2023-04-02T00:07:47.987Z,8.489
2023-04-02T00:08:47.153Z,8.489
2023-04-02T00:09:47.349Z,8.471
2023-04-02T00:10:47.620Z,8.500
2023-04-02T00:11:47.841Z,8.492
2023-04-02T00:12:48.009Z,8.527
2023-04-02T00:14:47.350Z,8.561
2023-04-02T00:15:47.726Z,8.540
2023-04-02T00:16:48.239Z,8.529
2023-04-02T00:17:47.491Z,8.489
2023-04-02T00:18:47.827Z,8.481
2023-04-02T00:19:48.035Z,8.519
2023-04-02T00:20:47.197Z,8.487
2023-04-02T00:21:47.360Z,8.471
2023-04-02T00:22:47.606Z,8.492
2023-04-02T00:23:47.847Z,8.511
2023-04-02T00:24:47.215Z,8.420
2023-04-02T00:25:47.426Z,8.497
2023-04-02T00:26:47.608Z,8.447
2023-04-02T00:27:47.757Z,8.463
2023-04-02T00:28:47.931Z,8.452
2023-04-02T00:29:48.063Z,8.465
2023-04-02T00:30:47.212Z,8.479
2023-04-02T00:31:47.346Z,8.455
2023-04-02T00:32:47.949Z,8.447
2023-04-02T00:33:47.425Z,8.455
2023-04-02T00:34:47.589Z,8.460
2023-04-02T00:35:47.834Z,8.412
2023-04-02T00:36:47.189Z,8.423
2023-04-02T00:37:47.406Z,8.420
2023-04-02T00:39:47.824Z,8.455
2023-04-02T00:40:48.010Z,8.471
2023-04-02T00:41:47.263Z,8.460
2023-04-02T00:42:47.464Z,8.481
2023-04-02T00:43:47.668Z,8.473
2023-04-02T00:44:47.800Z,8.495
2023-04-02T00:45:47.991Z,8.455
2023-04-02T00:46:47.559Z,8.468
2023-04-02T00:47:47.774Z,8.495
2023-04-02T00:48:47.139Z,8.457
2023-04-02T00:49:47.388Z,8.455
2023-04-02T00:50:47.592Z,8.431
2023-04-02T00:51:47.838Z,8.444
2023-04-02T00:52:47.972Z,8.452
2023-04-02T00:53:48.109Z,8.465
2023-04-02T00:54:47.216Z,8.455
2023-04-02T00:55:47.338Z,8.433
2023-04-02T00:56:47.550Z,8.449
2023-04-02T00:57:48.043Z,8.452
2023-04-02T00:58:47.191Z,8.471
2023-04-02T00:59:47.300Z,8.444
2023-04-02T01:00:47.464Z,8.444
2023-04-02T01:01:47.236Z,8.455
2023-04-02T01:02:47.909Z,8.481
2023-04-02T01:05:48.029Z,8.460
2023-04-02T01:06:47.305Z,8.431
2023-04-02T01:07:47.449Z,8.425
2023-04-02T01:08:47.685Z,8.452
2023-04-02T01:09:47.881Z,8.369
2023-04-02T01:10:48.112Z,8.425
2023-04-02T01:11:47.212Z,8.380
2023-04-02T01:12:47.370Z,8.420
2023-04-02T01:13:47.564Z,8.401
2023-04-02T01:14:47.763Z,8.369
2023-04-02T01:15:48.088Z,8.375
2023-04-02T01:16:47.647Z,8.385
2023-04-02T01:17:48.053Z,8.372
2023-04-02T01:20:47.861Z,8.359
2023-04-02T01:21:47.988Z,8.396
2023-04-02T01:22:47.160Z,8.417
2023-04-02T01:23:47.291Z,8.415
2023-04-02T01:24:47.425Z,8.399
2023-04-02T01:25:47.589Z,8.391
2023-04-02T01:26:47.789Z,8.372
2023-04-02T01:27:47.987Z,8.409
2023-04-02T01:28:47.222Z,8.399
2023-04-02T01:29:47.360Z,8.380
2023-04-02T01:30:47.676Z,8.409
2023-04-02T01:31:48.109Z,8.412
2023-04-02T01:34:48.054Z,8.407
2023-04-02T01:35:47.330Z,8.417
2023-04-02T01:36:47.680Z,8.444
2023-04-02T01:37:47.884Z,8.441
2023-04-02T01:38:48.056Z,8.449
2023-04-02T01:39:47.191Z,8.391
2023-04-02T01:40:47.425Z,8.412
2023-04-02T01:41:47.653Z,8.396
2023-04-02T01:42:47.865Z,8.396
2023-04-02T01:43:48.023Z,8.415
2023-04-02T01:44:47.241Z,8.393
2023-04-02T01:45:47.432Z,8.417
2023-04-02T01:46:47.666Z,8.436
2023-04-02T01:47:48.081Z,8.383
2023-04-02T01:48:47.497Z,8.447
2023-04-02T01:49:47.581Z,8.428
2023-04-02T01:50:47.843Z,8.420
2023-04-02T01:51:47.980Z,8.444
2023-04-02T01:52:47.161Z,8.447
2023-04-02T01:53:47.359Z,8.417
2023-04-02T01:54:47.509Z,8.417
2023-04-02T01:55:47.659Z,8.369
2023-04-02T01:56:47.882Z,8.412
2023-04-02T01:57:47.297Z,8.393
2023-04-02T01:58:47.944Z,8.428
2023-04-02T01:59:48.124Z,8.417
2023-04-02T02:00:47.471Z,8.439
2023-04-02T02:01:48.102Z,8.417
2023-04-02T02:02:47.348Z,8.412
2023-04-02T02:03:47.840Z,8.383
2023-04-02T02:04:48.008Z,8.431
2023-04-02T02:05:47.233Z,8.417
2023-04-02T02:06:47.414Z,8.404
2023-04-02T02:07:47.700Z,8.377
2023-04-02T02:08:47.913Z,8.383
2023-04-02T02:10:47.403Z,8.367
2023-04-02T02:11:47.671Z,8.391
2023-04-02T02:12:47.836Z,8.388
2023-04-02T02:13:47.962Z,8.391
2023-04-02T02:14:47.115Z,8.401
2023-04-02T02:15:47.316Z,8.353
2023-04-02T02:16:47.851Z,8.391
2023-04-02T02:17:48.166Z,8.383
2023-04-02T02:18:47.475Z,8.380
2023-04-02T02:19:47.602Z,8.364
2023-04-02T02:20:47.747Z,8.353
2023-04-02T02:21:47.909Z,8.348
2023-04-02T02:22:48.116Z,8.310
2023-04-02T02:25:47.724Z,8.332
2023-04-02T02:26:47.944Z,8.324
2023-04-02T02:27:48.077Z,8.361
2023-04-02T02:28:47.341Z,8.334
2023-04-02T02:29:47.482Z,8.359
2023-04-02T02:30:47.731Z,8.334
2023-04-02T02:31:48.104Z,8.353
2023-04-02T02:32:47.445Z,8.356
2023-04-02T02:33:47.748Z,8.337
2023-04-02T02:34:48.044Z,8.337
2023-04-02T02:35:47.348Z,8.348
2023-04-02T02:36:48.007Z,8.380
2023-04-02T02:39:47.722Z,8.337
2023-04-02T02:40:47.931Z,8.353
2023-04-02T02:41:48.116Z,8.337
2023-04-02T02:42:47.400Z,8.353
2023-04-02T02:43:47.579Z,8.367
2023-04-02T02:44:47.751Z,8.356
2023-04-02T02:45:47.948Z,8.337
2023-04-02T02:47:47.682Z,8.324
2023-04-02T02:48:47.997Z,8.329
2023-04-02T02:49:47.238Z,8.364
2023-04-02T02:50:47.423Z,8.345
2023-04-02T02:51:47.539Z,8.305
2023-04-02T02:52:47.728Z,8.334
2023-04-02T02:53:47.909Z,8.348
2023-04-02T02:54:48.069Z,8.353
2023-04-02T02:55:47.185Z,8.359
2023-04-02T02:56:47.361Z,8.337
2023-04-02T02:57:47.780Z,8.399
2023-04-02T02:58:47.377Z,8.332
2023-04-02T02:59:47.570Z,8.332
2023-04-02T03:00:47.736Z,8.326
2023-04-02T03:01:48.179Z,8.316
2023-04-02T03:02:47.663Z,8.332
2023-04-02T03:03:47.812Z,8.340
2023-04-02T03:04:47.706Z,8.302
2023-04-02T03:05:47.872Z,8.289
2023-04-02T03:06:48.085Z,8.270
2023-04-02T03:09:47.553Z,8.310
2023-04-02T03:10:47.735Z,8.329
2023-04-02T03:11:47.857Z,8.284
2023-04-02T03:12:47.984Z,8.318
2023-04-02T03:13:47.107Z,8.294
2023-04-02T03:14:47.245Z,8.310
2023-04-02T03:15:47.472Z,8.300
2023-04-02T03:16:47.900Z,8.305
2023-04-02T03:17:48.150Z,8.281
2023-04-02T03:18:47.779Z,8.305
2023-04-02T03:19:47.903Z,8.316
2023-04-02T03:20:48.086Z,8.326
2023-04-02T03:21:47.303Z,8.305
2023-04-02T03:22:47.473Z,8.310
2023-04-02T03:23:47.617Z,8.308
2023-04-02T03:24:47.788Z,8.308
2023-04-02T03:25:47.971Z,8.316
2023-04-02T03:26:48.096Z,8.308
2023-04-02T03:27:47.267Z,8.324
2023-04-02T03:28:47.480Z,8.281
2023-04-02T03:29:47.652Z,8.332
2023-04-02T03:30:47.892Z,8.356
2023-04-02T03:31:47.209Z,8.332
2023-04-02T03:32:47.618Z,8.308
2023-04-02T03:33:48.106Z,8.326
2023-04-02T03:34:47.193Z,8.310
2023-04-02T03:35:47.316Z,8.316
2023-04-02T03:36:47.686Z,8.316
2023-04-02T03:37:47.924Z,8.292
2023-04-02T03:38:48.115Z,8.284
2023-04-02T03:39:47.348Z,8.278
2023-04-02T03:40:47.679Z,8.289
2023-04-02T03:41:47.913Z,8.326
2023-04-02T03:42:48.387Z,8.289
2023-04-02T03:44:47.712Z,8.286
2023-04-02T03:45:47.987Z,8.225
2023-04-02T03:46:47.401Z,8.286
2023-04-02T03:47:47.802Z,8.270
2023-04-02T03:49:47.359Z,8.305
2023-04-02T03:50:47.509Z,8.260
2023-04-02T03:51:47.645Z,8.268
2023-04-02T03:52:47.808Z,8.238
2023-04-02T03:53:47.951Z,8.257
2023-04-02T03:54:53.396Z,8.268
2023-04-02T03:55:47.341Z,8.262
2023-04-02T03:56:47.481Z,8.220
2023-04-02T03:57:47.902Z,8.249
2023-04-02T03:58:48.020Z,8.241
2023-04-02T03:59:48.040Z,8.268
2023-04-02T04:00:47.401Z,8.262
2023-04-02T04:01:47.515Z,8.278
2023-04-02T04:02:47.976Z,8.284
2023-04-02T04:05:47.353Z,8.257
2023-04-02T04:06:47.471Z,8.265
2023-04-02T04:07:47.611Z,8.238
2023-04-02T04:08:47.796Z,8.244
2023-04-02T04:09:47.944Z,8.278
2023-04-02T04:10:47.139Z,8.254
2023-04-02T04:11:47.481Z,8.236
2023-04-02T04:12:47.631Z,8.244
2023-04-02T04:13:47.871Z,8.246
2023-04-02T04:14:48.075Z,8.241
2023-04-02T04:15:47.147Z,8.268
2023-04-02T04:16:47.401Z,8.268
2023-04-02T04:17:47.769Z,8.228
2023-04-02T04:19:47.293Z,8.252
2023-04-02T04:20:47.432Z,8.225
2023-04-02T04:21:47.721Z,8.225
2023-04-02T04:22:48.050Z,8.230
2023-04-02T04:24:47.434Z,8.265
2023-04-02T04:25:47.880Z,8.241
2023-04-02T04:26:48.088Z,8.217
2023-04-02T04:27:47.848Z,8.233
2023-04-02T04:28:47.992Z,8.260
2023-04-02T04:30:47.807Z,8.228
2023-04-02T04:31:48.029Z,8.236
2023-04-02T04:32:47.694Z,8.228
2023-04-02T04:33:48.091Z,8.182
2023-04-02T04:34:47.274Z,8.182
2023-04-02T04:35:47.626Z,8.198
2023-04-02T04:36:47.924Z,8.214
2023-04-02T04:37:48.084Z,8.190
2023-04-02T04:38:47.447Z,8.262
2023-04-02T04:39:47.608Z,8.230
2023-04-02T04:40:47.819Z,8.209
2023-04-02T04:41:48.023Z,8.225
2023-04-02T04:42:47.184Z,8.236
2023-04-02T04:43:47.452Z,8.222
2023-04-02T04:44:47.632Z,8.217
2023-04-02T04:45:47.869Z,8.214
2023-04-02T04:46:47.348Z,8.217
2023-04-02T04:47:47.582Z,8.228
2023-04-02T04:48:47.948Z,8.244
2023-04-02T04:49:48.134Z,8.209
2023-04-02T04:50:47.269Z,8.249
2023-04-02T04:51:47.540Z,8.252
2023-04-02T04:52:47.742Z,8.233
2023-04-02T04:53:47.924Z,8.236
2023-04-02T04:54:48.060Z,8.262
2023-04-02T04:55:47.228Z,8.252
2023-04-02T04:57:48.903Z,8.225
2023-04-02T04:58:49.052Z,8.276
2023-04-02T05:00:49.691Z,8.241
2023-04-02T05:01:48.493Z,8.252
2023-04-02T05:02:48.852Z,8.246
2023-04-02T05:03:48.250Z,8.246
2023-04-02T05:04:48.683Z,8.222
2023-04-02T05:05:49.015Z,8.222
2023-04-02T05:06:48.120Z,8.225
2023-04-02T05:07:48.271Z,8.228
2023-04-02T05:08:48.451Z,8.212
2023-04-02T05:09:48.684Z,8.228
2023-04-02T05:10:48.887Z,8.252
2023-04-02T05:11:49.097Z,8.238
2023-04-02T05:12:48.244Z,8.214
2023-04-02T05:13:48.427Z,8.217
2023-04-02T05:14:48.600Z,8.262
2023-04-02T05:15:48.944Z,8.273
2023-04-02T05:16:48.424Z,8.278
2023-04-02T05:17:48.794Z,8.273
2023-04-02T05:19:48.400Z,8.278
2023-04-02T05:20:48.639Z,8.289
2023-04-02T05:21:48.751Z,8.241
2023-04-02T05:22:49.158Z,8.241
2023-04-02T05:24:48.603Z,8.286
2023-04-02T05:25:48.809Z,8.297
2023-04-02T05:26:48.994Z,8.278
2023-04-02T05:27:48.160Z,8.292
2023-04-02T05:28:48.455Z,8.281
2023-04-02T05:29:48.805Z,8.281
2023-04-02T05:30:49.090Z,8.268
2023-04-02T05:32:48.669Z,8.278
2023-04-02T05:33:49.040Z,8.276
2023-04-02T05:34:48.194Z,8.262
2023-04-02T05:35:48.395Z,8.273
2023-04-02T05:36:49.036Z,8.348
2023-04-02T05:37:48.395Z,8.273
2023-04-02T05:38:48.487Z,8.292
2023-04-02T05:39:48.651Z,8.252
2023-04-02T05:40:48.812Z,8.289
2023-04-02T05:41:48.974Z,8.278
2023-04-02T05:42:48.168Z,8.316
2023-04-02T05:43:48.262Z,8.278
2023-04-02T05:44:48.436Z,8.302
2023-04-02T05:45:48.664Z,8.281
2023-04-02T05:46:49.017Z,8.305
2023-04-02T05:47:48.300Z,8.254
2023-04-02T05:48:48.782Z,8.286
2023-04-02T05:49:49.065Z,8.238
2023-04-02T05:50:48.195Z,8.241
2023-04-02T05:51:48.423Z,8.238
2023-04-02T05:52:48.543Z,8.257
2023-04-02T05:53:48.825Z,8.249
2023-04-02T05:54:49.098Z,8.209
2023-04-02T05:55:48.257Z,8.214
2023-04-02T05:56:48.462Z,8.225
2023-04-02T05:58:07.375Z,8.220
2023-04-02T06:00:05.665Z,8.169
2023-04-02T06:01:04.743Z,8.140
2023-04-02T06:02:04.980Z,8.166
2023-04-02T06:03:04.465Z,8.156
2023-04-02T06:06:04.615Z,8.169
2023-04-02T06:07:04.723Z,8.158
2023-04-02T06:08:04.930Z,8.150
2023-04-02T06:09:05.037Z,8.137
2023-04-02T06:10:04.199Z,8.137
2023-04-02T06:14:04.620Z,8.134
2023-04-02T06:15:04.796Z,8.099
2023-04-02T06:16:05.326Z,8.145
2023-04-02T06:17:04.637Z,8.124
2023-04-02T06:19:04.358Z,8.102
2023-04-02T06:20:04.585Z,8.089
2023-04-02T06:21:04.768Z,8.097
2023-04-02T06:22:05.021Z,8.081
2023-04-02T06:23:04.141Z,8.070
2023-04-02T06:24:04.216Z,8.081
2023-04-02T06:25:04.376Z,8.097
2023-04-02T06:26:04.549Z,8.083
2023-04-02T06:27:04.718Z,8.078
2023-04-02T06:28:04.862Z,8.086
2023-04-02T06:29:05.102Z,8.142
2023-04-02T06:30:04.307Z,8.142
2023-04-02T06:31:04.582Z,8.094
2023-04-02T06:32:04.228Z,8.108
2023-04-02T06:33:04.680Z,8.105
2023-04-02T06:34:05.000Z,8.113
2023-04-02T06:35:04.204Z,8.051
2023-04-02T06:36:04.565Z,8.102
2023-04-02T06:37:04.959Z,8.108
2023-04-02T06:38:04.176Z,8.086
2023-04-02T06:39:04.341Z,8.102
2023-04-02T06:40:04.446Z,8.089
2023-04-02T06:41:04.625Z,8.033
2023-04-02T06:42:04.745Z,8.065
2023-04-02T06:43:05.021Z,8.097
2023-04-02T06:44:04.196Z,8.086
2023-04-02T06:45:04.282Z,8.118
2023-04-02T06:46:04.623Z,8.089
2023-04-02T06:47:05.024Z,8.158
2023-04-02T06:49:05.064Z,8.086
2023-04-02T06:50:04.296Z,8.030
2023-04-02T06:51:04.536Z,8.051
2023-04-02T06:52:04.759Z,8.019
2023-04-02T06:53:04.916Z,8.065
2023-04-02T06:54:05.100Z,8.019
2023-04-02T06:55:04.232Z,8.038
2023-04-02T06:56:04.906Z,8.116
2023-04-02T06:57:05.168Z,8.001
2023-04-02T06:58:04.779Z,8.075
2023-04-02T06:59:04.890Z,8.134
2023-04-02T07:00:05.086Z,8.134
2023-04-02T07:01:04.770Z,8.078
2023-04-02T07:03:04.391Z,8.113
2023-04-02T07:04:04.703Z,8.150
2023-04-02T07:05:05.183Z,8.108
2023-04-02T07:06:04.570Z,8.134
2023-04-02T07:07:04.705Z,8.158
2023-04-02T07:08:04.834Z,8.089
2023-04-02T07:09:05.035Z,8.118
2023-04-02T07:10:04.162Z,8.105
2023-04-02T07:11:04.358Z,8.121
2023-04-02T07:12:04.431Z,8.083
2023-04-02T07:13:04.569Z,8.075
2023-04-02T07:14:04.771Z,8.051
2023-04-02T07:16:05.278Z,8.078
2023-04-02T07:17:04.164Z,8.097
2023-04-02T07:18:04.573Z,8.097
2023-04-02T07:19:04.868Z,8.059
2023-04-02T07:20:05.060Z,8.038
2023-04-02T07:21:04.180Z,7.886
2023-04-02T07:22:04.358Z,7.734
2023-04-02T07:23:04.465Z,7.584
2023-04-02T07:24:04.638Z,7.547
2023-04-02T07:25:04.848Z,7.419
2023-04-02T07:26:05.041Z,7.424
2023-04-02T07:27:04.195Z,7.378
2023-04-02T07:28:04.291Z,7.336
2023-04-02T07:29:04.540Z,7.296
2023-04-02T07:30:04.660Z,7.293
2023-04-02T07:31:04.836Z,7.272
2023-04-02T07:32:04.220Z,7.208
2023-04-02T07:33:04.358Z,7.168
2023-04-02T07:34:04.824Z,7.127
2023-04-02T07:35:04.927Z,7.061
2023-04-02T07:36:05.153Z,7.101
2023-04-02T07:38:04.711Z,7.061
2023-04-02T07:39:04.875Z,7.087
2023-04-02T07:40:05.029Z,7.114
2023-04-02T07:41:04.188Z,7.106
2023-04-02T07:42:04.346Z,7.178
2023-04-02T07:43:04.509Z,7.178
2023-04-02T07:44:04.792Z,7.168
2023-04-02T07:45:06.085Z,7.103
2023-04-02T07:46:04.325Z,6.970
2023-04-02T07:47:04.633Z,7.053
2023-04-02T07:48:04.969Z,7.074
2023-04-02T07:49:04.156Z,7.029
2023-04-02T07:50:04.327Z,7.144
2023-04-02T07:51:04.596Z,7.149
2023-04-02T07:52:04.799Z,7.144
2023-04-02T07:53:04.936Z,7.077
2023-04-02T07:54:05.104Z,7.144
2023-04-02T07:55:04.273Z,7.109
2023-04-02T07:56:04.421Z,7.133
2023-04-02T07:57:04.624Z,7.109
2023-04-02T07:58:05.036Z,7.050
2023-04-02T07:59:04.205Z,6.959
2023-04-02T08:00:04.394Z,7.130
2023-04-02T08:01:04.142Z,7.079
2023-04-02T08:02:04.364Z,7.087
2023-04-02T08:03:05.235Z,7.130
2023-04-02T08:05:04.193Z,7.184
2023-04-02T08:06:04.341Z,7.200
2023-04-02T08:07:04.554Z,7.277
2023-04-02T08:08:04.726Z,7.224
2023-04-02T08:09:04.887Z,7.146
2023-04-02T08:10:05.093Z,7.117
2023-04-02T08:11:04.504Z,7.165
2023-04-02T08:12:04.716Z,7.154
2023-04-02T08:13:04.906Z,7.098
2023-04-02T08:14:05.139Z,7.005
2023-04-02T08:15:04.324Z,7.077
2023-04-02T08:16:04.504Z,7.144
2023-04-02T08:17:04.944Z,7.253
2023-04-02T08:18:04.166Z,7.119
2023-04-02T08:19:04.432Z,7.152
2023-04-02T08:20:09.535Z,7.087
2023-04-02T08:22:04.760Z,7.168
2023-04-02T08:23:04.947Z,7.141
2023-04-02T08:24:05.137Z,7.103
2023-04-02T08:25:04.272Z,6.997
2023-04-02T08:26:04.426Z,7.200
2023-04-02T08:27:04.588Z,7.288
2023-04-02T08:28:04.809Z,7.352
2023-04-02T08:29:05.036Z,7.290
2023-04-02T08:30:04.215Z,7.074
2023-04-02T08:31:04.658Z,7.144
2023-04-02T08:34:04.974Z,7.181
2023-04-02T08:35:04.130Z,7.413
2023-04-02T08:36:04.403Z,7.330
2023-04-02T08:37:05.049Z,7.392
2023-04-02T08:38:04.209Z,7.525
2023-04-02T08:39:04.413Z,7.488
2023-04-02T08:40:04.524Z,7.467
2023-04-02T08:41:04.701Z,7.475
2023-04-02T08:42:04.913Z,7.557
2023-04-02T08:43:05.070Z,7.392
2023-04-02T08:44:04.901Z,7.344
2023-04-02T08:45:14.061Z,7.280
2023-04-02T08:46:05.114Z,7.237
2023-04-02T08:47:04.484Z,7.186
2023-04-02T08:48:04.755Z,7.277
2023-04-02T08:49:05.089Z,7.066
2023-04-02T08:50:04.343Z,7.031
2023-04-02T08:51:04.590Z,7.074
2023-04-02T08:52:04.743Z,7.042
2023-04-02T08:53:04.877Z,6.991
2023-04-02T08:54:04.946Z,6.935
2023-04-02T08:55:05.138Z,7.168
2023-04-02T08:57:04.690Z,7.087
2023-04-02T08:58:05.123Z,7.050
2023-04-02T08:59:04.317Z,6.949
2023-04-02T09:00:04.486Z,7.135
2023-04-02T09:01:04.631Z,7.090
2023-04-02T09:02:05.243Z,7.162
2023-04-02T09:03:04.601Z,7.130
2023-04-02T09:04:04.825Z,7.141
2023-04-02T09:05:04.265Z,6.965
2023-04-02T09:06:04.668Z,7.071
2023-04-02T09:07:04.822Z,7.245
2023-04-02T09:08:04.971Z,7.197
2023-04-02T09:09:05.094Z,7.242
2023-04-02T09:11:04.398Z,7.218
2023-04-02T09:12:04.653Z,7.336
2023-04-02T09:13:04.821Z,7.232
2023-04-02T09:14:05.008Z,7.320
2023-04-02T09:16:04.366Z,7.298
2023-04-02T09:17:04.758Z,7.258
2023-04-02T09:18:09.829Z,7.178
2023-04-02T09:19:04.196Z,7.162
2023-04-02T09:20:04.340Z,7.002
2023-04-02T09:21:04.509Z,6.941
2023-04-02T09:22:04.797Z,6.895
2023-04-02T09:23:05.038Z,6.970
2023-04-02T09:24:05.218Z,7.002
2023-04-02T09:25:04.431Z,6.863
2023-04-02T09:26:09.424Z,6.911
2023-04-02T09:28:04.673Z,7.256
2023-04-02T09:29:04.751Z,7.408
2023-04-02T09:30:04.924Z,7.635
2023-04-02T09:31:06.779Z,7.533
2023-04-02T09:32:04.515Z,7.678
2023-04-02T09:33:04.822Z,7.499
2023-04-02T09:34:04.143Z,7.421
2023-04-02T09:35:09.565Z,7.509
2023-04-02T09:37:04.648Z,7.103
2023-04-02T09:38:04.832Z,7.141
2023-04-02T09:39:04.152Z,7.226
2023-04-02T09:40:04.297Z,7.082
2023-04-02T09:41:04.527Z,7.005
2023-04-02T09:42:09.596Z,6.965
2023-04-02T09:44:04.939Z,7.087
2023-04-02T09:45:05.142Z,6.863
2023-04-02T09:46:04.315Z,6.884
2023-04-02T09:47:04.743Z,6.839
2023-04-02T09:48:04.299Z,6.658
2023-04-02T09:49:04.527Z,6.863
2023-04-02T09:50:04.624Z,6.828
2023-04-02T09:51:05.009Z,6.561
2023-04-02T09:52:04.191Z,6.636
2023-04-02T09:53:04.345Z,6.687
2023-04-02T09:54:04.483Z,6.674
2023-04-02T09:55:04.558Z,6.687
2023-04-02T09:56:04.787Z,6.962
2023-04-02T09:57:04.975Z,6.975
2023-04-02T09:58:04.611Z,7.178
2023-04-02T09:59:04.729Z,7.130
2023-04-02T10:00:04.158Z,7.077
2023-04-02T10:01:04.839Z,7.272
2023-04-02T10:02:05.102Z,7.050
2023-04-02T10:03:04.430Z,7.125
2023-04-02T10:04:04.685Z,6.708
2023-04-02T10:05:04.978Z,6.740
2023-04-02T10:07:07.857Z,6.826
2023-04-02T10:08:07.971Z,6.775
2023-04-02T10:10:07.311Z,6.826
2023-04-02T10:11:07.596Z,6.887
2023-04-02T10:12:07.809Z,6.898
2023-04-02T10:13:07.924Z,6.823
2023-04-02T10:14:07.088Z,6.788
2023-04-02T10:15:07.396Z,6.588
2023-04-02T10:16:07.773Z,6.772
2023-04-02T10:17:07.402Z,6.807
2023-04-02T10:18:07.762Z,6.863
2023-04-02T10:20:07.491Z,7.050
2023-04-02T10:21:09.012Z,7.301
2023-04-02T10:22:07.109Z,7.533
2023-04-02T10:23:07.234Z,7.568
2023-04-02T10:24:07.488Z,7.573
2023-04-02T10:25:07.628Z,7.472
2023-04-02T10:26:07.859Z,7.403
2023-04-02T10:27:07.990Z,7.242
2023-04-02T10:28:07.435Z,7.378
2023-04-02T10:29:07.560Z,7.603
2023-04-02T10:30:07.737Z,7.739
2023-04-02T10:31:07.967Z,7.945
2023-04-02T10:32:07.523Z,8.126
2023-04-02T10:33:07.766Z,7.683
2023-04-02T10:34:08.137Z,7.787
2023-04-02T10:35:07.317Z,7.469
2023-04-02T10:36:07.748Z,7.552
2023-04-02T10:37:08.145Z,7.597
2023-04-02T10:38:07.304Z,7.691
2023-04-02T10:39:07.457Z,7.680
2023-04-02T10:40:07.669Z,8.129
2023-04-02T10:41:08.025Z,8.551
2023-04-02T10:42:07.152Z,7.971
2023-04-02T10:43:07.304Z,8.214
2023-04-02T10:44:16.999Z,8.113
2023-04-02T10:45:07.744Z,8.059
2023-04-02T10:46:07.976Z,8.006
2023-04-02T10:47:07.116Z,8.257
2023-04-02T10:48:07.316Z,8.196
2023-04-02T10:49:07.502Z,7.939
2023-04-02T10:50:08.041Z,7.670
2023-04-02T10:51:07.215Z,8.019
2023-04-02T10:52:07.333Z,8.276
2023-04-02T10:53:07.511Z,8.698
2023-04-02T10:54:07.823Z,8.615
2023-04-02T10:55:07.999Z,8.719
2023-04-02T10:56:07.089Z,8.305
2023-04-02T10:57:09.389Z,8.495
2023-04-02T10:59:07.259Z,7.899
2023-04-02T11:00:07.385Z,7.856
2023-04-02T11:01:07.530Z,7.445
2023-04-02T11:02:07.913Z,7.544
2023-04-02T11:04:07.378Z,7.787
2023-04-02T11:05:07.577Z,8.054
2023-04-02T11:06:07.645Z,7.835
2023-04-02T11:07:14.200Z,7.435
2023-04-02T11:08:07.804Z,7.496
2023-04-02T11:09:08.009Z,7.533
2023-04-02T11:10:07.159Z,7.883
2023-04-02T11:11:07.437Z,7.560
2023-04-02T11:12:07.639Z,7.624
2023-04-02T11:13:07.852Z,7.624
2023-04-02T11:14:07.970Z,7.632
2023-04-02T11:15:07.139Z,7.768
2023-04-02T11:16:07.291Z,7.707
2023-04-02T11:17:07.880Z,8.009
2023-04-02T11:18:07.174Z,8.225
2023-04-02T11:19:07.350Z,8.481
2023-04-02T11:20:07.541Z,8.487
2023-04-02T11:21:07.802Z,8.508
2023-04-02T11:22:12.896Z,8.334
2023-04-02T11:24:07.128Z,8.759
2023-04-02T11:25:07.231Z,8.081
2023-04-02T11:26:07.415Z,8.182
2023-04-02T11:27:07.598Z,8.380
2023-04-02T11:28:07.778Z,8.051
2023-04-02T11:29:07.546Z,8.190
2023-04-02T11:30:07.655Z,8.310
2023-04-02T11:31:07.855Z,8.046
2023-04-02T11:32:07.114Z,7.993
2023-04-02T11:33:07.522Z,8.329
2023-04-02T11:35:13.482Z,8.091
2023-04-02T11:37:08.937Z,7.963
2023-04-02T11:38:09.110Z,8.137
2023-04-02T11:39:16.865Z,7.808
2023-04-02T11:40:08.269Z,8.166
2023-04-02T11:41:08.401Z,8.011
2023-04-02T11:42:08.588Z,7.771
2023-04-02T11:43:08.785Z,7.411
2023-04-02T11:44:09.016Z,7.381
2023-04-02T11:45:08.267Z,7.253
2023-04-02T11:46:10.925Z,7.242
2023-04-02T11:48:09.447Z,7.280
2023-04-02T11:49:08.779Z,7.149
2023-04-02T11:52:13.491Z,7.293
2023-04-02T11:53:08.622Z,7.443
2023-04-02T11:54:08.815Z,7.063
2023-04-02T11:55:08.993Z,7.365
2023-04-02T11:56:08.156Z,7.320
2023-04-02T11:57:08.602Z,7.141
2023-04-02T11:58:09.083Z,7.448
2023-04-02T11:59:08.320Z,7.632
2023-04-02T12:00:08.645Z,7.595
2023-04-02T12:01:09.048Z,7.760
2023-04-02T12:02:08.256Z,7.969
2023-04-02T12:03:08.858Z,8.201
2023-04-02T12:04:09.102Z,8.268
2023-04-02T12:05:08.287Z,7.926
2023-04-02T12:06:08.653Z,7.905
2023-04-02T12:07:08.856Z,7.910
2023-04-02T12:08:09.183Z,7.824
2023-04-02T12:09:08.395Z,7.560
2023-04-02T12:10:08.570Z,7.501
2023-04-02T12:11:08.786Z,7.296
2023-04-02T12:12:09.628Z,6.967
2023-04-02T12:13:08.893Z,7.149
2023-04-02T12:14:09.162Z,7.053
2023-04-02T12:15:08.342Z,7.029
2023-04-02T12:16:08.559Z,7.218
2023-04-02T12:17:09.928Z,6.842
2023-04-02T12:19:08.744Z,6.975
2023-04-02T12:20:08.932Z,7.039
2023-04-02T12:21:09.072Z,6.933
2023-04-02T12:22:08.269Z,7.007
2023-04-02T12:23:08.484Z,6.978
2023-04-02T12:24:08.602Z,6.831
2023-04-02T12:25:08.781Z,6.874
2023-04-02T12:26:08.985Z,7.114
2023-04-02T12:27:08.212Z,7.135
2023-04-02T12:28:08.317Z,7.093
2023-04-02T12:29:08.570Z,7.160
2023-04-02T12:30:08.872Z,7.015
2023-04-02T12:31:09.349Z,6.949
2023-04-02T12:32:09.024Z,7.005
2023-04-02T12:34:08.265Z,7.245
2023-04-02T12:35:08.459Z,7.632
2023-04-02T12:36:08.732Z,7.886
2023-04-02T12:37:08.980Z,8.193
2023-04-02T12:38:08.153Z,7.929
2023-04-02T12:39:08.280Z,8.081
2023-04-02T12:40:08.786Z,8.401
2023-04-02T12:41:08.925Z,8.481
2023-04-02T12:42:09.103Z,8.241
2023-04-02T12:43:08.305Z,8.270
2023-04-02T12:44:08.508Z,8.177
2023-04-02T12:45:08.728Z,8.150
2023-04-02T12:47:08.907Z,8.188
2023-04-02T12:48:09.188Z,7.990
2023-04-02T12:49:08.415Z,7.838
2023-04-02T12:50:08.543Z,8.035
2023-04-02T12:51:08.729Z,7.686
2023-04-02T12:52:08.449Z,7.710
2023-04-02T12:53:08.608Z,7.683
2023-04-02T12:54:08.680Z,7.875
2023-04-02T12:55:08.890Z,7.675
2023-04-02T12:56:09.147Z,7.272
2023-04-02T12:57:08.354Z,7.595
2023-04-02T12:58:08.700Z,7.672
2023-04-02T12:59:08.947Z,7.632
2023-04-02T13:00:09.065Z,7.632
2023-04-02T13:01:08.265Z,7.568
2023-04-02T13:02:08.568Z,7.605
2023-04-02T13:03:09.120Z,7.218
2023-04-02T13:04:08.340Z,7.354
2023-04-02T13:05:08.654Z,7.493
2023-04-02T13:06:08.825Z,7.557
2023-04-02T13:07:09.044Z,7.424
2023-04-02T13:08:08.187Z,7.536
2023-04-02T13:09:08.408Z,7.293
2023-04-02T13:10:08.590Z,7.395
2023-04-02T13:11:08.771Z,7.467
2023-04-02T13:12:08.944Z,7.256
2023-04-02T13:13:09.104Z,7.405
2023-04-02T13:15:08.370Z,7.846
2023-04-02T13:16:08.278Z,7.795
2023-04-02T13:17:08.668Z,7.659
2023-04-02T13:18:08.902Z,7.662
2023-04-02T13:19:09.122Z,7.472
2023-04-02T13:20:08.264Z,7.931
2023-04-02T13:21:08.513Z,7.830
2023-04-02T13:22:09.048Z,7.589
2023-04-02T13:23:08.232Z,7.496
2023-04-02T13:24:08.436Z,7.744
2023-04-02T13:25:08.804Z,7.216
2023-04-02T13:26:08.985Z,7.280
2023-04-02T13:27:08.200Z,7.301
2023-04-02T13:28:08.365Z,7.280
2023-04-02T13:29:08.581Z,7.485
2023-04-02T13:30:08.860Z,7.533
2023-04-02T13:31:09.043Z,7.264
2023-04-02T13:33:08.734Z,7.400
2023-04-02T13:34:08.916Z,7.197
2023-04-02T13:35:09.081Z,7.242
2023-04-02T13:36:08.314Z,7.250
2023-04-02T13:37:08.512Z,7.322
2023-04-02T13:38:09.055Z,7.154
2023-04-02T13:39:08.275Z,6.858
2023-04-02T13:40:09.167Z,6.650
2023-04-02T13:44:08.879Z,6.447
2023-04-02T13:45:09.056Z,6.698
2023-04-02T13:46:08.325Z,6.404
2023-04-02T13:47:08.527Z,6.436
2023-04-02T13:48:08.977Z,6.238
2023-04-02T13:49:08.231Z,6.252
2023-04-02T13:50:08.458Z,6.145
2023-04-02T13:51:08.278Z,6.206
2023-04-02T13:52:08.552Z,6.396
2023-04-02T13:53:10.503Z,6.487
2023-04-02T13:54:08.963Z,6.374
2023-04-02T13:55:08.324Z,6.345
2023-04-02T13:56:08.544Z,6.348
2023-04-02T13:57:08.872Z,6.169
2023-04-02T13:58:08.364Z,6.113
2023-04-02T13:59:08.536Z,6.206
2023-04-02T14:00:08.766Z,6.233
2023-04-02T14:01:09.128Z,6.372
2023-04-02T14:02:08.676Z,6.543
2023-04-02T14:05:08.478Z,6.105
2023-04-02T14:06:08.650Z,5.966